createdAt,value
2022-12-12T00:01:57.585Z,1.12
2022-12-12T00:06:02.617Z,1.12
2022-12-12T00:11:21.575Z,1.12
2022-12-12T00:16:41.025Z,1.12
2022-12-12T00:21:59.157Z,1.12
2022-12-12T00:27:18.542Z,1.09
2022-12-12T00:32:38.009Z,1.09
2022-12-12T00:37:57.673Z,1.12
2022-12-12T00:43:16.637Z,1.12
2022-12-12T00:48:34.834Z,1.1
2022-12-12T00:53:53.814Z,1.09
2022-12-12T00:59:12.691Z,1.09
2022-12-12T01:04:32.267Z,1.1
2022-12-12T01:09:52.453Z,1.12
2022-12-12T01:15:11.607Z,1.09
2022-12-12T01:20:30.885Z,1.1
2022-12-12T01:25:50.561Z,1.09
2022-12-12T01:31:09.910Z,1.1
2022-12-12T01:36:28.911Z,1.1
2022-12-12T01:41:48.627Z,1.07
2022-12-12T01:47:07.469Z,1.07
2022-12-12T01:52:26.619Z,1.07
2022-12-12T01:57:45.744Z,1.09
2022-12-12T02:03:04.028Z,1.07
2022-12-12T02:08:23.511Z,1.07
2022-12-12T02:13:42.831Z,1.09
2022-12-12T02:19:02.006Z,1.09
2022-12-12T02:24:25.855Z,1.09
2022-12-12T02:29:41.128Z,1.05
2022-12-12T02:34:59.936Z,1.07
2022-12-12T02:40:18.983Z,1.09
2022-12-12T02:45:38.540Z,1.07
2022-12-12T02:50:57.664Z,1.07
2022-12-12T02:56:16.939Z,1.04
2022-12-12T03:01:36.221Z,1.07
2022-12-12T03:06:55.917Z,1.09
2022-12-12T03:12:15.815Z,1.04
2022-12-12T03:17:34.832Z,1.05
2022-12-12T03:22:54.371Z,1.04
2022-12-12T03:28:13.328Z,1.07
2022-12-12T03:33:32.329Z,1.05
2022-12-12T03:38:51.471Z,1.07
2022-12-12T03:44:11.012Z,1.05
2022-12-12T03:49:30.889Z,1.04
2022-12-12T03:54:50.419Z,1.05
2022-12-12T04:00:09.733Z,1.03
2022-12-12T04:05:29.350Z,1.04
2022-12-12T04:10:48.887Z,1.03
2022-12-12T04:16:07.982Z,1.04
2022-12-12T04:21:27.265Z,1.04
2022-12-12T04:26:46.363Z,1.05
2022-12-12T04:32:05.386Z,1.03
2022-12-12T04:37:24.422Z,1.04
2022-12-12T04:42:43.459Z,1.05
2022-12-12T04:49:17.647Z,1.04
2022-12-12T04:53:23.946Z,1.04
2022-12-12T04:58:43.481Z,1.02
2022-12-12T05:04:03.274Z,1.03
2022-12-12T05:09:22.723Z,1.03
2022-12-12T05:14:41.021Z,1.03
2022-12-12T05:20:00.261Z,1.02
2022-12-12T05:25:19.886Z,1.02
2022-12-12T05:30:39.436Z,1.04
2022-12-12T05:35:58.836Z,1.04
2022-12-12T05:41:17.841Z,1.02
2022-12-12T05:46:36.962Z,1.04
2022-12-12T05:51:56.262Z,1.05
2022-12-12T05:57:15.806Z,1.05
2022-12-12T06:02:35.543Z,1.04
2022-12-12T06:07:55.083Z,1.04
2022-12-12T06:13:13.290Z,1.05
2022-12-12T06:18:32.678Z,1.05
2022-12-12T06:23:52.266Z,1.05
2022-12-12T06:29:12.241Z,1.04
2022-12-12T06:34:31.975Z,1.04
2022-12-12T06:39:51.353Z,1.07
2022-12-12T06:45:09.639Z,1.07
2022-12-12T06:50:28.537Z,1.05
2022-12-12T06:55:47.980Z,1.07
2022-12-12T07:01:07.362Z,1.07
2022-12-12T07:06:26.288Z,1.07
2022-12-12T07:11:46.092Z,1.07
2022-12-12T07:17:05.276Z,1.05
2022-12-12T07:22:24.006Z,1.09
2022-12-12T07:27:43.633Z,1.05
2022-12-12T07:33:03.462Z,1.09
2022-12-12T07:38:22.959Z,1.09
2022-12-12T07:43:44.005Z,1.09
2022-12-12T07:49:01.857Z,1.09
2022-12-12T07:54:48.092Z,1.16
2022-12-12T08:00:07.579Z,1.09
2022-12-12T08:05:26.461Z,1.12
2022-12-12T08:10:46.182Z,1.09
2022-12-12T08:16:05.662Z,1.1
2022-12-12T08:21:26.308Z,1.12
2022-12-12T08:26:44.648Z,1.1
2022-12-12T08:32:04.245Z,1.09
2022-12-12T08:37:23.735Z,1.13
2022-12-12T08:42:43.243Z,1.13
2022-12-12T08:48:02.621Z,1.13
2022-12-12T08:53:21.900Z,1.1
2022-12-12T08:58:41.509Z,1.1
2022-12-12T09:04:00.471Z,1.12
2022-12-12T09:09:19.888Z,1.13
2022-12-12T09:14:38.933Z,1.16
2022-12-12T09:19:58.502Z,1.15
2022-12-12T09:25:18.288Z,1.16
2022-12-12T09:30:37.013Z,1.13
2022-12-12T09:35:56.719Z,1.19
2022-12-12T09:41:16.441Z,1.16
2022-12-12T09:46:35.415Z,1.16
2022-12-12T09:51:54.357Z,1.16
2022-12-12T09:57:13.758Z,1.2
2022-12-12T10:02:33.280Z,1.22
2022-12-12T10:07:53.053Z,1.2
2022-12-12T10:13:11.965Z,1.22
2022-12-12T10:18:31.772Z,1.2
2022-12-12T10:23:51.142Z,1.22
2022-12-12T10:29:10.646Z,1.22
2022-12-12T10:34:29.813Z,1.23
2022-12-12T10:39:49.498Z,1.23
2022-12-12T10:46:23.883Z,1.23
2022-12-12T10:50:28.313Z,1.23
2022-12-12T10:55:47.337Z,1.27
2022-12-12T11:01:06.513Z,1.27
2022-12-12T11:11:45.295Z,1.29
2022-12-12T11:17:04.696Z,1.3
2022-12-12T11:27:42.776Z,1.33
2022-12-12T11:38:20.617Z,1.33
2022-12-12T11:43:40.009Z,1.35
2022-12-12T11:48:59.732Z,1.35
2022-12-12T11:54:19.106Z,1.35
2022-12-12T11:59:38.289Z,1.37
2022-12-12T12:10:21.020Z,1.4
2022-12-12T12:20:55.719Z,1.44
2022-12-12T12:26:15.229Z,1.43
2022-12-12T12:36:53.261Z,1.46
2022-12-12T12:42:12.899Z,1.48
2022-12-12T12:52:51.605Z,1.48
2022-12-12T13:19:29.783Z,1.53
2022-12-12T13:24:48.548Z,1.54
2022-12-12T13:30:08.171Z,1.56
2022-12-12T13:35:27.163Z,1.54
2022-12-12T13:42:01.352Z,1.54
2022-12-12T13:46:06.274Z,1.57
2022-12-12T13:51:25.464Z,1.56
2022-12-12T14:02:03.945Z,1.57
2022-12-12T14:07:22.673Z,1.58
2022-12-12T14:18:00.192Z,1.6
2022-12-12T14:33:57.700Z,1.63
2022-12-12T14:44:39.047Z,1.6
2022-12-12T14:49:55.956Z,1.61
2022-12-12T15:00:34.237Z,1.63
2022-12-12T15:16:31.871Z,1.6
2022-12-12T15:27:10.774Z,1.6
2022-12-12T15:37:50.392Z,1.58
2022-12-12T15:43:09.354Z,1.58
2022-12-12T15:53:47.549Z,1.56
2022-12-12T15:59:07.310Z,1.56
2022-12-12T16:09:45.019Z,1.51
2022-12-12T16:15:04.295Z,1.5
2022-12-12T16:25:43.552Z,1.5
2022-12-12T16:41:41.085Z,1.43
2022-12-12T16:47:00.554Z,1.43
2022-12-12T16:52:20.403Z,1.4
2022-12-12T16:57:40.195Z,1.4
2022-12-12T17:02:59.155Z,1.36
2022-12-12T17:08:18.352Z,1.36
2022-12-12T17:13:37.771Z,1.36
2022-12-12T17:18:57.196Z,1.35
2022-12-12T17:24:16.683Z,1.33
2022-12-12T17:29:36.086Z,1.32
2022-12-12T17:34:55.365Z,1.27
2022-12-12T17:40:16.104Z,1.29
2022-12-12T17:45:35.502Z,1.27
2022-12-12T17:50:55.173Z,1.26
2022-12-12T17:56:14.671Z,1.25
2022-12-12T18:01:33.791Z,1.23
2022-12-12T18:06:52.872Z,1.22
2022-12-12T18:12:12.150Z,1.19
2022-12-12T18:17:31.027Z,1.19
2022-12-12T18:22:49.974Z,1.16
2022-12-12T18:28:09.050Z,1.16
2022-12-12T18:33:28.298Z,1.13
2022-12-12T18:38:48.138Z,1.13
2022-12-12T18:44:07.448Z,1.13
2022-12-12T18:49:26.510Z,1.13
2022-12-12T18:54:46.343Z,1.07
2022-12-12T19:00:05.580Z,1.09
2022-12-12T19:05:24.538Z,1.05
2022-12-12T19:10:44.343Z,1.05
2022-12-12T19:16:03.286Z,1.05
2022-12-12T19:21:22.552Z,1.05
2022-12-12T19:26:41.720Z,1.02
2022-12-12T19:32:01.043Z,1.03
2022-12-12T19:37:19.957Z,1.02
2022-12-12T19:42:38.879Z,1.02
2022-12-12T19:47:57.653Z,1
2022-12-12T19:53:16.640Z,0.96
2022-12-12T19:58:38.520Z,0.99
2022-12-12T20:03:54.885Z,0.96
2022-12-12T20:09:14.753Z,0.93
2022-12-12T20:14:33.675Z,0.93
2022-12-12T20:19:52.851Z,0.93
2022-12-12T20:25:12.177Z,0.92
2022-12-12T20:30:31.918Z,0.92
2022-12-12T20:35:51.744Z,0.91
2022-12-12T20:41:11.063Z,0.91
2022-12-12T20:46:30.214Z,0.88
2022-12-12T20:51:56.680Z,0.88
2022-12-12T20:57:09.313Z,0.88
2022-12-12T21:02:30.408Z,0.85
2022-12-12T21:07:47.786Z,0.83
2022-12-12T21:13:07.316Z,0.85
2022-12-12T21:18:26.568Z,0.83
2022-12-12T21:23:45.551Z,0.82
2022-12-12T21:29:05.971Z,0.83
2022-12-12T21:34:25.142Z,0.82
2022-12-12T21:39:44.277Z,0.81
2022-12-12T21:45:03.566Z,0.81
2022-12-12T21:50:26.092Z,0.79
2022-12-12T21:55:41.490Z,0.81
2022-12-12T22:01:00.374Z,0.79
2022-12-12T22:06:19.945Z,0.81
2022-12-12T22:11:40.602Z,0.78
2022-12-12T22:16:58.606Z,0.78
2022-12-12T22:22:17.719Z,0.76
2022-12-12T22:27:37.133Z,0.75
2022-12-12T22:32:56.568Z,0.75
2022-12-12T22:38:16.372Z,0.72
2022-12-12T22:43:35.611Z,0.75
2022-12-12T22:48:54.681Z,0.72
2022-12-12T22:54:13.997Z,0.72
2022-12-12T22:59:33.128Z,0.69
2022-12-12T23:04:52.543Z,0.72
2022-12-12T23:10:11.938Z,0.72
2022-12-12T23:15:30.854Z,0.72
2022-12-12T23:20:50.390Z,0.69
2022-12-12T23:26:10.028Z,0.68
2022-12-12T23:31:29.722Z,0.69
2022-12-12T23:36:49.216Z,0.68
2022-12-12T23:42:08.889Z,0.68
2022-12-12T23:47:28.442Z,0.69
2022-12-12T23:52:48.493Z,0.68
2022-12-12T23:58:07.737Z,0.66
